Time;durP1;ratioP1;P1;durP2;ratioP2;P2;SDS_P1;SDS_P2;PMS_P1;PMS_P2;Temp;Humidity;BMP_temperature;BMP_pressure;BME280_temperature;BME280_humidity;BME280_pressure;Samples;Min_cycle;Max_cycle;Signal;HPM_P1;HPM_P2
2022/09/03 00:02:01;;;;;;;5.45;1.40;;;17.70;94.30;;;;;;5077234;28;20053;-67
2022/09/03 00:04:41;;;;;;;8.68;1.50;;;17.70;94.30;;;;;;5090814;28;20127;-57
2022/09/03 00:07:16;;;;;;;4.72;1.25;;;17.60;94.30;;;;;;5077291;28;20170;-56
2022/09/03 00:09:47;;;;;;;8.35;0.98;;;17.60;94.40;;;;;;5073290;28;20049;-56
2022/09/03 00:12:33;;;;;;;1.63;0.90;;;17.60;94.30;;;;;;5057077;28;20045;-56
2022/09/03 00:15:14;;;;;;;4.07;1.83;;;17.60;94.50;;;;;;5056977;28;20118;-56
2022/09/03 00:17:48;;;;;;;3.65;1.40;;;17.60;94.30;;;;;;5057214;28;20068;-57
2022/09/03 00:20:35;;;;;;;1.90;0.90;;;17.50;94.20;;;;;;5056913;28;20116;-56
2022/09/03 00:23:06;;;;;;;2.40;1.23;;;17.50;94.30;;;;;;5056926;28;20514;-57
2022/09/03 00:25:40;;;;;;;3.55;1.05;;;17.50;94.30;;;;;;5057023;28;20052;-56
2022/09/03 00:28:14;;;;;;;4.05;0.68;;;17.50;94.30;;;;;;5072784;28;20056;-57
2022/09/03 00:30:41;;;;;;;2.00;0.60;;;17.50;94.30;;;;;;5056654;28;20044;-58
2022/09/03 00:33:17;;;;;;;6.85;0.95;;;17.50;94.30;;;;;;5059812;28;20055;-67
2022/09/03 00:35:53;;;;;;;4.63;0.90;;;17.40;94.60;;;;;;5058476;28;20479;-67
2022/09/03 00:38:21;;;;;;;3.83;0.82;;;17.40;94.40;;;;;;5076685;28;20474;-67
2022/09/03 00:40:46;;;;;;;2.45;0.85;;;17.30;94.40;;;;;;5075669;28;20040;-67
2022/09/03 00:43:45;;;;;;;3.10;1.08;;;17.30;94.80;;;;;;5076145;28;20040;-67
2022/09/03 00:46:48;;;;;;;19.23;1.40;;;17.30;94.60;;;;;;5076545;28;20044;-67
2022/09/03 00:49:36;;;;;;;2.15;1.05;;;17.30;94.40;;;;;;5034477;28;20426;-67
2022/09/03 00:52:21;;;;;;;7.93;2.85;;;17.20;94.70;;;;;;5034197;28;20119;-66
2022/09/03 00:55:05;;;;;;;7.18;2.80;;;17.20;94.60;;;;;;5034400;28;20080;-67
2022/09/03 00:57:55;;;;;;;11.60;3.45;;;17.20;94.70;;;;;;5034490;28;20527;-67
2022/09/03 01:00:21;;;;;;;7.35;3.40;;;17.20;94.80;;;;;;5034467;28;20060;-66
2022/09/03 01:03:08;;;;;;;5.60;3.20;;;17.10;94.80;;;;;;5017613;28;20532;-66
2022/09/03 01:05:51;;;;;;;8.23;4.20;;;17.10;94.80;;;;;;5033058;28;20120;-67
2022/09/03 01:08:38;;;;;;;10.93;4.40;;;17.10;94.90;;;;;;5033776;28;20057;-67
2022/09/03 01:11:03;;;;;;;8.88;3.83;;;17.00;94.80;;;;;;5034051;28;20052;-67
2022/09/03 01:14:05;;;;;;;8.95;3.83;;;17.10;94.90;;;;;;5034029;28;20045;-66
2022/09/03 01:16:43;;;;;;;5.05;3.17;;;17.00;94.90;;;;;;5033498;28;20468;-66
2022/09/03 01:19:24;;;;;;;3.85;2.63;;;17.00;95.00;;;;;;5032925;28;20048;-66
2022/09/03 01:22:19;;;;;;;4.72;2.10;;;17.00;95.10;;;;;;5033922;28;20088;-67
2022/09/03 01:25:30;;;;;;;6.10;1.40;;;16.90;95.20;;;;;;4957638;28;20486;-67
2022/09/03 01:28:37;;;;;;;4.47;1.45;;;16.90;95.20;;;;;;5014085;28;20056;-67
2022/09/03 01:31:25;;;;;;;4.60;1.45;;;16.80;95.20;;;;;;4993803;28;20109;-67
2022/09/03 01:34:21;;;;;;;4.57;1.00;;;16.80;95.30;;;;;;4993962;28;20084;-66
2022/09/03 01:36:54;;;;;;;2.28;0.90;;;16.80;95.20;;;;;;4994246;28;20054;-67
2022/09/03 01:39:44;;;;;;;2.78;0.80;;;16.70;95.30;;;;;;4993086;28;20074;-67
2022/09/03 01:42:22;;;;;;;5.43;0.90;;;16.70;95.60;;;;;;4993981;28;20180;-67
2022/09/03 01:45:12;;;;;;;3.92;1.10;;;16.70;95.50;;;;;;4993706;28;20050;-67
2022/09/03 01:47:50;;;;;;;4.30;0.98;;;16.70;95.50;;;;;;4993782;28;20057;-67
2022/09/03 01:50:49;;;;;;;1.38;0.88;;;16.60;95.70;;;;;;4993253;28;20129;-66
2022/09/03 01:53:15;;;;;;;7.72;0.82;;;16.60;95.70;;;;;;4992900;28;20108;-67
2022/09/03 01:55:56;;;;;;;1.85;0.82;;;16.60;95.50;;;;;;4993540;28;20050;-66
2022/09/03 01:58:53;;;;;;;1.52;0.60;;;16.60;95.70;;;;;;4993590;28;20134;-67
2022/09/03 02:01:29;;;;;;;2.33;0.70;;;16.50;95.70;;;;;;5005949;28;20052;-67
2022/09/03 02:03:58;;;;;;;5.00;0.93;;;16.50;95.60;;;;;;5018437;28;20060;-67
2022/09/03 02:06:25;;;;;;;1.35;0.93;;;16.50;95.50;;;;;;5054847;28;20049;-57
2022/09/03 02:08:51;;;;;;;1.42;0.80;;;16.50;95.60;;;;;;5054778;28;20055;-57
2022/09/03 02:11:17;;;;;;;1.80;0.70;;;16.50;95.50;;;;;;5054668;28;20523;-57
2022/09/03 02:13:50;;;;;;;1.73;0.73;;;16.40;95.60;;;;;;5054795;28;20136;-57
2022/09/03 02:16:20;;;;;;;1.50;0.82;;;16.40;95.60;;;;;;5054674;28;20519;-57
2022/09/03 02:18:50;;;;;;;2.78;0.77;;;16.40;95.70;;;;;;5054900;28;20098;-57
2022/09/03 02:21:19;;;;;;;2.10;0.70;;;16.40;95.80;;;;;;5054279;28;20490;-56
2022/09/03 02:23:45;;;;;;;2.50;0.70;;;16.40;96.10;;;;;;5054440;28;20080;-57
2022/09/03 02:26:14;;;;;;;2.92;1.13;;;16.30;95.80;;;;;;5054717;28;20045;-56
2022/09/03 02:28:40;;;;;;;5.63;0.80;;;16.30;95.80;;;;;;5054731;28;20052;-56
2022/09/03 02:31:06;;;;;;;6.30;0.70;;;16.30;96.00;;;;;;5054140;28;20045;-56
2022/09/03 02:33:38;;;;;;;1.45;0.60;;;16.20;96.10;;;;;;5054668;28;20048;-56
2022/09/03 02:36:07;;;;;;;2.88;0.60;;;16.20;96.10;;;;;;5054050;28;20106;-56
2022/09/03 02:38:33;;;;;;;4.28;1.20;;;16.10;96.30;;;;;;5054495;28;20048;-56
2022/09/03 02:40:59;;;;;;;1.15;0.60;;;16.00;96.40;;;;;;5054541;28;20040;-56
2022/09/03 02:43:53;;;;;;;7.25;1.17;;;16.00;96.50;;;;;;5036513;28;20051;-56
2022/09/03 02:46:26;;;;;;;6.07;1.05;;;16.00;96.80;;;;;;5054210;28;20053;-57
2022/09/03 02:48:53;;;;;;;2.63;0.73;;;15.90;96.80;;;;;;5054184;28;20084;-66
2022/09/03 02:51:19;;;;;;;1.80;1.05;;;15.90;96.80;;;;;;5054265;28;20098;-67
2022/09/03 02:53:44;;;;;;;5.38;1.35;;;15.80;97.10;;;;;;5054304;28;20442;-67
2022/09/03 02:56:11;;;;;;;7.38;1.25;;;15.80;97.00;;;;;;5054369;28;20045;-67
2022/09/03 02:58:36;;;;;;;4.75;0.90;;;15.70;97.10;;;;;;5053810;28;20051;-67
2022/09/03 03:01:03;;;;;;;3.33;0.90;;;15.70;97.60;;;;;;5054097;28;20129;-67
2022/09/03 03:03:28;;;;;;;2.13;0.82;;;15.70;97.50;;;;;;5053371;28;20041;-66
2022/09/03 03:05:56;;;;;;;2.20;0.80;;;15.60;97.50;;;;;;5054114;28;20430;-68
2022/09/03 03:08:26;;;;;;;5.70;1.00;;;15.50;97.80;;;;;;5036241;28;20052;-67
2022/09/03 03:10:57;;;;;;;4.88;1.20;;;15.50;97.90;;;;;;5036482;28;20468;-66
2022/09/03 03:13:23;;;;;;;1.83;1.02;;;15.50;97.90;;;;;;5053883;28;20052;-67
2022/09/03 03:15:49;;;;;;;2.70;0.90;;;15.40;98.00;;;;;;5053805;28;20052;-67
2022/09/03 03:18:16;;;;;;;2.50;0.85;;;15.40;98.10;;;;;;5053634;28;20487;-67
2022/09/03 03:20:42;;;;;;;3.08;1.08;;;15.40;98.10;;;;;;5036235;28;20057;-67
2022/09/03 03:23:09;;;;;;;6.07;1.30;;;15.40;98.30;;;;;;5053670;28;20119;-66
2022/09/03 03:25:37;;;;;;;2.17;0.85;;;15.40;98.20;;;;;;5054161;28;20128;-56
2022/09/03 03:28:03;;;;;;;4.57;1.00;;;15.40;98.30;;;;;;5053673;28;20045;-56
2022/09/03 03:30:30;;;;;;;2.72;1.23;;;15.40;98.30;;;;;;5053560;28;20279;-55
2022/09/03 03:32:56;;;;;;;2.28;0.98;;;15.40;98.30;;;;;;5053838;28;20087;-56
2022/09/03 03:35:22;;;;;;;2.00;0.75;;;15.30;98.40;;;;;;5053326;28;20057;-55
2022/09/03 03:37:48;;;;;;;1.73;0.90;;;15.40;98.30;;;;;;5070997;28;20056;-56
2022/09/03 03:40:14;;;;;;;1.88;1.08;;;15.40;98.30;;;;;;5073299;28;20058;-56
2022/09/03 03:42:40;;;;;;;2.47;1.00;;;15.40;98.30;;;;;;5073399;28;20036;-56
2022/09/03 03:45:08;;;;;;;1.48;1.10;;;15.40;98.30;;;;;;5073213;28;20044;-56
2022/09/03 03:47:35;;;;;;;1.60;1.00;;;15.40;98.40;;;;;;5073463;28;20394;-56
2022/09/03 03:50:01;;;;;;;2.40;1.25;;;15.40;98.50;;;;;;5073429;28;20131;-56
2022/09/03 03:52:28;;;;;;;2.83;0.90;;;15.50;98.50;;;;;;5073322;28;20059;-57
2022/09/03 03:54:54;;;;;;;3.90;1.00;;;15.50;98.40;;;;;;5072999;28;20045;-57
2022/09/03 03:57:20;;;;;;;2.38;1.10;;;15.50;98.30;;;;;;5073326;28;20052;-57
2022/09/03 03:59:47;;;;;;;2.72;0.82;;;15.50;98.20;;;;;;5073303;28;20365;-58
2022/09/03 04:02:13;;;;;;;1.58;0.98;;;15.50;98.30;;;;;;5073424;28;20045;-56
2022/09/03 04:04:39;;;;;;;2.35;0.95;;;15.50;98.40;;;;;;5073104;28;20037;-57
2022/09/03 04:07:06;;;;;;;3.08;1.08;;;15.50;98.30;;;;;;5072868;28;20072;-56
2022/09/03 04:09:33;;;;;;;3.15;0.98;;;15.50;98.50;;;;;;5072941;28;20098;-56
2022/09/03 04:11:58;;;;;;;1.98;1.10;;;15.50;98.40;;;;;;5073419;28;20047;-55
2022/09/03 04:14:26;;;;;;;4.47;0.85;;;15.60;98.40;;;;;;5075098;28;20037;-57
2022/09/03 04:16:51;;;;;;;3.00;1.00;;;15.60;98.30;;;;;;5076944;28;20048;-56
2022/09/03 04:19:18;;;;;;;2.38;0.90;;;15.50;98.50;;;;;;5076716;28;20045;-57
2022/09/03 04:21:44;;;;;;;2.20;1.30;;;15.50;98.50;;;;;;5076492;28;20044;-56
2022/09/03 04:24:09;;;;;;;2.53;1.05;;;15.50;98.70;;;;;;5076520;28;20045;-57
2022/09/03 04:26:35;;;;;;;2.38;1.00;;;15.50;98.60;;;;;;5076626;28;20067;-56
2022/09/03 04:29:04;;;;;;;2.33;1.20;;;15.50;98.60;;;;;;5076647;28;20101;-57
2022/09/03 04:31:30;;;;;;;1.85;1.10;;;15.50;98.70;;;;;;5076531;28;20044;-56
2022/09/03 04:33:56;;;;;;;1.55;0.98;;;15.50;98.70;;;;;;5076513;28;20056;-56
2022/09/03 04:36:24;;;;;;;4.28;1.42;;;15.50;99.00;;;;;;5076680;28;20040;-57
2022/09/03 04:38:53;;;;;;;2.65;1.10;;;15.50;98.80;;;;;;5076311;28;20037;-57
2022/09/03 04:41:24;;;;;;;2.35;1.10;;;15.50;99.10;;;;;;5076448;28;20056;-56
2022/09/03 04:43:55;;;;;;;2.22;1.02;;;15.40;99.10;;;;;;5076186;28;20037;-56
2022/09/03 04:46:24;;;;;;;2.10;1.27;;;15.40;99.30;;;;;;5076341;28;20371;-56
2022/09/03 04:48:52;;;;;;;1.75;1.10;;;15.40;99.10;;;;;;5076184;28;20054;-56
2022/09/03 04:51:22;;;;;;;2.47;1.40;;;15.40;99.20;;;;;;5076135;28;20052;-56
2022/09/03 04:53:53;;;;;;;3.70;1.02;;;15.30;99.50;;;;;;5076161;28;20049;-57
2022/09/03 04:56:22;;;;;;;6.03;1.33;;;15.30;99.40;;;;;;5076091;28;20049;-57
2022/09/03 04:58:54;;;;;;;10.05;2.55;;;15.20;99.50;;;;;;5076130;28;20459;-57
2022/09/03 05:01:21;;;;;;;1.73;1.30;;;15.20;99.50;;;;;;5075645;28;20044;-57
2022/09/03 05:03:47;;;;;;;2.55;1.15;;;15.20;99.60;;;;;;5076012;28;20055;-57
2022/09/03 05:06:16;;;;;;;3.22;1.25;;;15.20;99.60;;;;;;5075713;28;20048;-57
2022/09/03 05:08:42;;;;;;;4.50;1.40;;;15.20;99.80;;;;;;5075809;28;20045;-57
2022/09/03 05:11:08;;;;;;;3.08;1.60;;;15.20;99.90;;;;;;5075856;28;20102;-57
2022/09/03 05:13:35;;;;;;;3.20;1.52;;;15.20;99.70;;;;;;5075223;28;20052;-57
2022/09/03 05:16:07;;;;;;;3.08;1.50;;;15.10;99.90;;;;;;5076090;28;20059;-57
2022/09/03 05:18:34;;;;;;;3.83;1.40;;;15.20;99.90;;;;;;5075569;28;20049;-57
2022/09/03 05:21:00;;;;;;;4.22;1.38;;;15.20;99.90;;;;;;5075564;28;20052;-58
2022/09/03 05:23:27;;;;;;;1.80;1.33;;;15.10;99.90;;;;;;5075646;28;20387;-56
2022/09/03 05:25:58;;;;;;;4.07;1.35;;;15.10;99.90;;;;;;5074830;28;20449;-56
2022/09/03 05:28:29;;;;;;;3.70;1.52;;;15.20;99.90;;;;;;5075428;28;20052;-57
2022/09/03 05:31:15;;;;;;;3.47;1.27;;;15.20;99.90;;;;;;5075034;28;20091;-56
2022/09/03 05:33:44;;;;;;;6.63;1.55;;;15.20;99.90;;;;;;5075219;28;20044;-57
2022/09/03 05:36:13;;;;;;;1.80;1.00;;;15.30;99.90;;;;;;5075052;28;20388;-57
2022/09/03 05:38:38;;;;;;;2.95;1.25;;;15.30;99.90;;;;;;5075281;28;20048;-58
2022/09/03 05:41:06;;;;;;;3.13;1.33;;;15.30;99.90;;;;;;5075280;28;20048;-57
2022/09/03 05:43:33;;;;;;;3.63;1.38;;;15.40;99.90;;;;;;5075241;28;20040;-57
2022/09/03 05:46:08;;;;;;;4.10;1.40;;;15.30;99.90;;;;;;5075246;28;20129;-57
2022/09/03 05:48:35;;;;;;;7.78;1.30;;;15.40;99.90;;;;;;5075017;28;20045;-56
2022/09/03 05:51:07;;;;;;;4.55;1.52;;;15.40;99.90;;;;;;5074930;28;20479;-56
2022/09/03 05:53:35;;;;;;;2.13;1.30;;;15.40;99.90;;;;;;5074987;28;20070;-56
2022/09/03 05:56:05;;;;;;;2.03;1.50;;;15.40;99.90;;;;;;5074493;28;20055;-57
2022/09/03 05:58:38;;;;;;;1.33;1.15;;;15.40;99.90;;;;;;5056816;28;20040;-58
2022/09/03 06:01:23;;;;;;;1.98;1.42;;;15.40;99.90;;;;;;5057116;28;20119;-57
2022/09/03 06:03:58;;;;;;;4.50;1.45;;;15.50;99.90;;;;;;5074734;28;20036;-57
2022/09/03 06:06:24;;;;;;;5.18;1.65;;;15.50;99.90;;;;;;5074752;28;20059;-57
2022/09/03 06:08:56;;;;;;;4.85;1.75;;;15.50;99.90;;;;;;5074614;28;20051;-57
2022/09/03 06:11:26;;;;;;;1.98;1.25;;;15.50;99.90;;;;;;5074767;28;20056;-58
2022/09/03 06:13:54;;;;;;;4.60;1.58;;;15.50;99.90;;;;;;5074386;28;20135;-58
2022/09/03 06:16:20;;;;;;;3.38;1.45;;;15.40;99.90;;;;;;5074450;28;20589;-57
2022/09/03 06:18:46;;;;;;;3.47;1.42;;;15.50;99.90;;;;;;5074518;28;20052;-57
2022/09/03 06:21:13;;;;;;;3.83;1.20;;;15.50;99.90;;;;;;5074430;28;20048;-57
2022/09/03 06:23:40;;;;;;;3.85;1.33;;;15.60;99.90;;;;;;5074488;28;20040;-57
2022/09/03 06:26:10;;;;;;;4.03;1.25;;;15.70;99.90;;;;;;5074369;28;20044;-58
2022/09/03 06:28:40;;;;;;;4.10;1.35;;;15.80;99.90;;;;;;5074307;28;20127;-57
2022/09/03 06:31:08;;;;;;;1.65;1.33;;;15.90;99.90;;;;;;5074231;28;20102;-58
2022/09/03 06:33:36;;;;;;;5.73;1.47;;;16.00;99.90;;;;;;5074633;28;20049;-57
2022/09/03 06:36:04;;;;;;;1.77;1.38;;;16.20;99.90;;;;;;5055970;28;20080;-58
2022/09/03 06:38:34;;;;;;;3.65;1.17;;;16.30;99.80;;;;;;5073676;28;20091;-58
2022/09/03 06:41:02;;;;;;;2.15;1.30;;;16.50;99.80;;;;;;5074056;28;20044;-56
2022/09/03 06:43:29;;;;;;;2.33;1.20;;;16.60;99.50;;;;;;5074075;28;20040;-57
2022/09/03 06:45:57;;;;;;;2.80;1.38;;;16.80;99.30;;;;;;5074122;28;20049;-56
2022/09/03 06:48:23;;;;;;;2.85;1.15;;;16.90;99.20;;;;;;5073934;28;20075;-57
2022/09/03 06:51:00;;;;;;;1.65;1.27;;;17.10;98.60;;;;;;5074006;28;20040;-57
2022/09/03 06:53:27;;;;;;;2.42;1.20;;;17.40;98.60;;;;;;5074040;28;20395;-57
2022/09/03 06:56:01;;;;;;;4.22;1.20;;;17.60;98.30;;;;;;5074311;28;20056;-57
2022/09/03 06:58:36;;;;;;;8.80;1.27;;;17.80;98.20;;;;;;5073921;28;20051;-58
2022/09/03 07:01:14;;;;;;;3.22;2.33;;;17.90;97.70;;;;;;5073871;28;20049;-57
2022/09/03 07:03:42;;;;;;;3.33;1.27;;;18.10;97.10;;;;;;5073874;28;20094;-56
2022/09/03 07:06:10;;;;;;;2.50;1.42;;;18.10;97.10;;;;;;5073728;28;20183;-59
2022/09/03 07:08:36;;;;;;;4.65;1.48;;;18.30;97.20;;;;;;5073761;28;20051;-58
2022/09/03 07:11:07;;;;;;;6.25;1.20;;;18.40;97.10;;;;;;5056115;28;20048;-58
2022/09/03 07:13:38;;;;;;;2.03;1.15;;;18.70;96.90;;;;;;5073917;28;20045;-55
2022/09/03 07:16:11;;;;;;;2.67;1.35;;;18.80;97.00;;;;;;5073541;28;20124;-55
2022/09/03 07:18:37;;;;;;;1.48;1.13;;;19.80;95.80;;;;;;5073673;28;20051;-55
2022/09/03 07:21:06;;;;;;;5.45;1.25;;;20.00;95.30;;;;;;5073674;28;20044;-56
2022/09/03 07:23:32;;;;;;;;;;;20.60;94.50;;;;;;5074064;28;20060;-56
2022/09/03 07:26:03;;;;;;;8.73;1.30;;;21.00;93.90;;;;;;5073511;28;19916;-56
2022/09/03 07:28:33;;;;;;;2.65;1.13;;;21.20;93.30;;;;;;5055654;28;20046;-56
2022/09/03 07:31:05;;;;;;;2.15;1.60;;;21.80;93.70;;;;;;5073575;28;20123;-56
2022/09/03 07:33:31;;;;;;;4.50;1.60;;;21.70;93.00;;;;;;5073453;28;20045;-56
2022/09/03 07:36:13;;;;;;;2.90;1.15;;;22.20;92.60;;;;;;5073130;28;20059;-56
2022/09/03 07:38:40;;;;;;;2.50;1.05;;;23.00;92.30;;;;;;5055359;28;20080;-55
2022/09/03 07:41:08;;;;;;;5.10;1.40;;;23.00;91.90;;;;;;5073491;28;20094;-55
2022/09/03 07:43:39;;;;;;;3.38;1.25;;;23.00;91.90;;;;;;5055716;28;20123;-55
2022/09/03 07:46:17;;;;;;;2.83;1.33;;;23.70;91.30;;;;;;5073204;28;20044;-56
2022/09/03 07:48:45;;;;;;;2.47;1.30;;;23.80;91.30;;;;;;5074444;28;20051;-56
2022/09/03 07:51:11;;;;;;;8.57;2.17;;;24.40;90.80;;;;;;5077371;28;20044;-56
2022/09/03 07:53:37;;;;;;;1.80;1.27;;;24.70;90.50;;;;;;5059246;28;20044;-55
2022/09/03 07:56:05;;;;;;;1.70;1.20;;;24.60;90.40;;;;;;5077172;28;20053;-55
2022/09/03 07:58:32;;;;;;;7.97;1.30;;;24.40;90.40;;;;;;5077169;28;20128;-56
2022/09/03 08:01:02;;;;;;;5.05;1.20;;;24.90;90.10;;;;;;5076931;28;20545;-55
2022/09/03 08:03:28;;;;;;;3.58;1.20;;;26.10;89.10;;;;;;5077243;28;20485;-56
2022/09/03 08:05:59;;;;;;;1.23;1.13;;;26.80;89.40;;;;;;5076907;28;20076;-55
2022/09/03 08:08:24;;;;;;;1.80;1.30;;;27.30;88.60;;;;;;5077061;28;20402;-56
2022/09/03 08:10:50;;;;;;;4.70;1.48;;;27.00;86.50;;;;;;5076930;28;20044;-55
2022/09/03 08:13:15;;;;;;;2.65;1.10;;;26.90;87.30;;;;;;5076975;28;20052;-56
2022/09/03 08:15:41;;;;;;;7.50;1.38;;;27.40;86.60;;;;;;5076748;28;20052;-56
2022/09/03 08:18:07;;;;;;;4.15;1.10;;;27.50;87.30;;;;;;5076896;28;20044;-55
2022/09/03 08:20:33;;;;;;;4.43;1.10;;;28.20;86.50;;;;;;5076834;28;20131;-56
2022/09/03 08:23:01;;;;;;;1.30;1.00;;;29.00;85.00;;;;;;5076766;28;20499;-56
2022/09/03 08:25:27;;;;;;;3.08;1.27;;;28.50;84.60;;;;;;5076385;28;20045;-55
2022/09/03 08:27:53;;;;;;;3.28;1.23;;;28.90;84.50;;;;;;5058902;28;20055;-56
2022/09/03 08:30:20;;;;;;;3.30;0.95;;;29.80;84.20;;;;;;5076965;28;20123;-56
2022/09/03 08:32:46;;;;;;;2.22;1.15;;;29.90;84.40;;;;;;5076583;28;20044;-56
2022/09/03 08:35:12;;;;;;;5.15;1.10;;;30.20;83.70;;;;;;5057850;28;20060;-55
2022/09/03 08:37:38;;;;;;;8.25;1.17;;;30.30;82.30;;;;;;5076436;28;20054;-55
2022/09/03 08:40:05;;;;;;;4.63;1.00;;;30.30;81.10;;;;;;5076423;28;20473;-55
2022/09/03 08:43:17;;;;;;;2.90;1.10;;;30.80;82.20;;;;;;5076262;28;20041;-56
2022/09/03 08:45:44;;;;;;;0.95;0.80;;;30.40;81.40;;;;;;5073224;28;20063;-55
2022/09/03 08:48:18;;;;;;;6.80;0.90;;;30.30;81.30;;;;;;5076191;28;20088;-56
2022/09/03 08:50:51;;;;;;;2.53;1.25;;;30.10;81.40;;;;;;5076271;28;20051;-56
2022/09/03 08:53:23;;;;;;;3.63;0.88;;;30.90;81.30;;;;;;5076216;28;20426;-56
2022/09/03 08:55:57;;;;;;;5.10;1.02;;;30.90;80.60;;;;;;5076122;28;20048;-57
2022/09/03 08:58:30;;;;;;;3.90;0.82;;;30.30;80.90;;;;;;5076008;28;20144;-57
2022/09/03 09:01:32;;;;;;;2.13;1.30;;;31.10;80.30;;;;;;5074759;28;20044;-57
2022/09/03 09:04:16;;;;;;;1.40;0.90;;;30.90;80.50;;;;;;5075873;28;20063;-56
2022/09/03 09:07:16;;;;;;;2.65;0.77;;;31.80;79.40;;;;;;5076022;28;20137;-55
2022/09/03 09:09:48;;;;;;;4.78;1.20;;;32.00;79.80;;;;;;5075971;28;20072;-55
2022/09/03 09:12:23;;;;;;;4.25;1.20;;;31.90;79.20;;;;;;5075793;28;20128;-57
2022/09/03 09:15:01;;;;;;;2.97;0.90;;;31.50;79.40;;;;;;5075878;28;20127;-57
2022/09/03 09:18:04;;;;;;;2.03;1.00;;;32.20;79.70;;;;;;5075762;28;20441;-56
2022/09/03 09:21:09;;;;;;;4.57;0.82;;;32.00;79.00;;;;;;5075662;28;20120;-56
2022/09/03 09:23:46;;;;;;;1.98;0.93;;;32.70;80.10;;;;;;4993842;28;20050;-58
2022/09/03 09:26:18;;;;;;;3.38;0.88;;;33.30;80.20;;;;;;4994010;28;20536;-58
2022/09/03 09:28:55;;;;;;;5.72;1.05;;;33.20;77.70;;;;;;4994213;28;20050;-58
2022/09/03 09:31:21;;;;;;;4.00;1.40;;;32.90;78.40;;;;;;4994127;28;20046;-57
2022/09/03 09:33:47;;;;;;;2.17;1.08;;;33.00;78.50;;;;;;4993869;28;20054;-56
2022/09/03 09:36:18;;;;;;;2.85;1.00;;;32.40;79.30;;;;;;4993466;28;20058;-55
2022/09/03 09:38:46;;;;;;;2.45;1.23;;;33.00;79.30;;;;;;4993832;28;20117;-56
2022/09/03 09:41:11;;;;;;;;;;;32.60;78.90;;;;;;4994237;28;20046;-57
2022/09/03 09:43:38;;;;;;;5.85;1.20;;;33.10;78.90;;;;;;4993841;28;19917;-57
2022/09/03 09:46:24;;;;;;;2.85;0.90;;;32.10;78.70;;;;;;4993785;28;20054;-57
2022/09/03 09:48:53;;;;;;;2.08;0.80;;;31.70;79.30;;;;;;4993517;28;20054;-56
2022/09/03 09:51:29;;;;;;;4.07;0.98;;;31.90;79.30;;;;;;4993627;28;20150;-57
2022/09/03 09:54:26;;;;;;;2.97;1.10;;;31.40;78.00;;;;;;4993743;28;20559;-62
2022/09/03 09:57:05;;;;;;;3.30;0.90;;;30.50;79.60;;;;;;4993246;28;20050;-56
2022/09/03 09:59:36;;;;;;;4.03;1.35;;;29.90;79.60;;;;;;5024989;28;20106;-62
2022/09/03 10:02:12;;;;;;;5.88;1.10;;;30.40;80.20;;;;;;5074941;28;20075;-62
2022/09/03 10:04:38;;;;;;;1.30;0.80;;;31.00;80.20;;;;;;5074652;28;20055;-61
2022/09/03 10:07:22;;;;;;;5.57;0.80;;;31.50;79.90;;;;;;5074736;28;20053;-61
2022/09/03 10:10:11;;;;;;;2.97;0.90;;;30.90;77.80;;;;;;5056833;28;20078;-62
2022/09/03 10:12:40;;;;;;;4.65;0.80;;;30.90;79.70;;;;;;5074291;28;20123;-62
2022/09/03 10:15:18;;;;;;;3.22;0.98;;;30.70;79.40;;;;;;5074763;28;20052;-62
2022/09/03 10:17:58;;;;;;;1.42;0.90;;;30.30;79.20;;;;;;5074573;28;20123;-62
2022/09/03 10:20:53;;;;;;;5.45;1.45;;;30.60;79.40;;;;;;5074521;28;20086;-56
2022/09/03 10:23:27;;;;;;;1.20;0.63;;;31.50;79.20;;;;;;5074477;28;20116;-56
2022/09/03 10:25:55;;;;;;;5.32;1.27;;;31.40;78.90;;;;;;5074185;28;20457;-56
2022/09/03 10:28:25;;;;;;;3.65;0.98;;;31.70;78.00;;;;;;5074289;28;20390;-55
2022/09/03 10:30:59;;;;;;;5.93;1.40;;;31.70;78.40;;;;;;5074293;28;20045;-55
2022/09/03 10:33:33;;;;;;;3.15;0.93;;;31.80;78.60;;;;;;5052156;28;20052;-60
2022/09/03 10:36:15;;;;;;;3.42;1.20;;;32.30;77.70;;;;;;5073398;28;20053;-56
2022/09/03 10:38:43;;;;;;;5.03;1.00;;;32.60;77.10;;;;;;5073429;28;20170;-62
2022/09/03 10:41:15;;;;;;;;;;;32.80;77.20;;;;;;5073823;28;20101;-58
2022/09/03 10:43:50;;;;;;;1.05;0.82;;;32.60;77.20;;;;;;5073845;28;19994;-57
2022/09/03 10:46:24;;;;;;;3.13;0.90;;;32.60;78.30;;;;;;5073521;28;20454;-57
2022/09/03 10:49:06;;;;;;;2.78;0.75;;;32.20;77.90;;;;;;5073564;28;20049;-63
2022/09/03 10:51:39;;;;;;;4.25;0.95;;;32.60;77.40;;;;;;5073227;28;20044;-62
2022/09/03 10:54:24;;;;;;;2.25;0.90;;;32.70;76.60;;;;;;5073597;28;20052;-57
2022/09/03 10:57:16;;;;;;;3.92;0.98;;;31.80;75.40;;;;;;5072659;28;20041;-57
2022/09/03 11:00:14;;;;;;;7.95;1.00;;;32.00;76.80;;;;;;5074404;28;20048;-57
2022/09/03 11:03:18;;;;;;;7.32;0.90;;;31.50;76.10;;;;;;5072189;28;20040;-62
2022/09/03 11:06:10;;;;;;;5.15;1.20;;;31.90;77.10;;;;;;5053795;28;20182;-63
2022/09/03 11:08:42;;;;;;;4.53;1.27;;;31.90;77.00;;;;;;5054077;28;20057;-63
2022/09/03 11:11:32;;;;;;;3.28;1.13;;;32.50;76.60;;;;;;5054106;28;20392;-63
2022/09/03 11:14:09;;;;;;;2.60;0.90;;;32.40;75.90;;;;;;5053611;28;20077;-63
2022/09/03 11:17:00;;;;;;;4.38;0.90;;;32.50;75.30;;;;;;5035685;28;20084;-63
2022/09/03 11:19:50;;;;;;;3.60;0.70;;;32.80;75.50;;;;;;5053957;28;20060;-63
2022/09/03 11:22:18;;;;;;;5.65;0.88;;;32.60;74.50;;;;;;5053797;28;20052;-63
2022/09/03 11:24:45;;;;;;;;;;;33.00;74.60;;;;;;5065620;28;20180;-63
2022/09/03 11:27:28;;;;;;;3.85;0.75;;;33.30;73.70;;;;;;5073674;28;20027;-65
2022/09/03 11:30:13;;;;;;;3.85;0.98;;;33.80;74.20;;;;;;5053924;28;20053;-62
2022/09/03 11:32:42;;;;;;;6.05;1.08;;;33.90;73.30;;;;;;5072907;28;20438;-63
2022/09/03 11:35:31;;;;;;;2.05;0.85;;;34.20;74.70;;;;;;5069646;28;20055;-63
2022/09/03 11:38:19;;;;;;;2.17;0.93;;;33.80;72.70;;;;;;5068541;28;20052;-62
2022/09/03 11:40:59;;;;;;;1.42;0.85;;;34.60;72.50;;;;;;5068895;28;20047;-62
2022/09/03 11:43:34;;;;;;;3.90;0.90;;;35.20;72.60;;;;;;5070325;28;20040;-62
2022/09/03 11:46:26;;;;;;;4.45;0.77;;;35.00;71.80;;;;;;5069033;28;20047;-63
2022/09/03 11:49:19;;;;;;;5.38;1.02;;;35.00;70.30;;;;;;5073706;28;20493;-62
2022/09/03 11:51:57;;;;;;;3.70;0.82;;;34.90;71.70;;;;;;5050674;28;20048;-64
2022/09/03 11:54:25;;;;;;;8.35;1.08;;;34.90;71.00;;;;;;5067264;28;20040;-63
2022/09/03 11:57:04;;;;;;;5.57;0.80;;;35.70;71.50;;;;;;5055632;28;20072;-62
2022/09/03 11:59:30;;;;;;;3.05;0.90;;;36.40;71.40;;;;;;5072591;28;20402;-62
2022/09/03 12:02:26;;;;;;;5.82;0.85;;;35.70;70.60;;;;;;5071604;28;20167;-62
2022/09/03 12:05:11;;;;;;;2.63;0.93;;;35.90;71.50;;;;;;5073312;28;20040;-61
2022/09/03 12:08:01;;;;;;;2.50;0.63;;;36.40;70.40;;;;;;5055722;28;20059;-61
2022/09/03 12:10:34;;;;;;;2.58;0.85;;;35.80;69.60;;;;;;5073699;28;20053;-62
2022/09/03 12:13:35;;;;;;;3.60;0.80;;;36.30;69.80;;;;;;5073280;28;20132;-62
2022/09/03 12:16:27;;;;;;;4.22;1.45;;;35.60;69.30;;;;;;5073222;28;20066;-62
2022/09/03 12:18:59;;;;;;;3.35;0.70;;;35.90;69.20;;;;;;5073259;28;20048;-62
2022/09/03 12:21:25;;;;;;;5.57;0.75;;;35.40;68.90;;;;;;5073212;28;20048;-63
2022/09/03 12:23:52;;;;;;;1.83;0.68;;;35.60;69.60;;;;;;5073352;28;20040;-55
2022/09/03 12:26:24;;;;;;;4.43;0.90;;;35.60;67.90;;;;;;5072833;28;20561;-56
2022/09/03 12:28:54;;;;;;;4.32;1.00;;;34.50;68.10;;;;;;5073539;28;20102;-61
2022/09/03 12:31:22;;;;;;;1.48;0.80;;;34.90;69.40;;;;;;5073147;28;20059;-57
2022/09/03 12:33:54;;;;;;;4.22;1.35;;;35.20;69.00;;;;;;5073090;28;20047;-58
2022/09/03 12:36:21;;;;;;;5.97;1.20;;;34.80;69.10;;;;;;5076141;28;20079;-62
2022/09/03 12:38:47;;;;;;;;;;;35.00;69.50;;;;;;5077291;28;20106;-61
2022/09/03 12:41:25;;;;;;;3.42;0.57;;;35.40;68.50;;;;;;5076892;28;19927;-62
2022/09/03 12:43:59;;;;;;;3.70;0.70;;;34.80;69.20;;;;;;5076888;28;20111;-61
2022/09/03 12:46:31;;;;;;;5.32;0.80;;;34.80;68.70;;;;;;5076492;28;20056;-62
2022/09/03 12:49:06;;;;;;;3.65;0.80;;;34.90;69.30;;;;;;5076620;28;20055;-62
2022/09/03 12:51:41;;;;;;;12.30;0.75;;;35.20;68.80;;;;;;5076623;28;20535;-62
2022/09/03 12:54:14;;;;;;;2.80;0.70;;;35.00;68.40;;;;;;5058712;28;20052;-62
2022/09/03 12:56:43;;;;;;;4.70;1.08;;;35.70;68.90;;;;;;5076006;28;20182;-62
2022/09/03 12:59:13;;;;;;;1.55;0.70;;;35.40;68.40;;;;;;5076353;28;20053;-61
2022/09/03 13:01:49;;;;;;;3.33;0.95;;;35.80;67.70;;;;;;5076406;28;20053;-56
2022/09/03 13:04:28;;;;;;;4.55;0.82;;;35.60;67.80;;;;;;5076445;28;20045;-57
2022/09/03 13:07:04;;;;;;;5.05;0.82;;;35.80;68.40;;;;;;5076024;28;20045;-57
2022/09/03 13:09:33;;;;;;;3.35;1.10;;;35.20;67.90;;;;;;5076209;28;20121;-57
2022/09/03 13:12:03;;;;;;;2.78;0.70;;;34.00;68.60;;;;;;5075972;28;20119;-57
2022/09/03 13:14:30;;;;;;;4.28;0.95;;;34.50;69.20;;;;;;5076272;28;20490;-56
2022/09/03 13:17:08;;;;;;;3.83;1.02;;;34.40;68.60;;;;;;5075636;28;20048;-56
2022/09/03 13:19:34;;;;;;;0.70;0.45;;;34.40;69.20;;;;;;5075655;28;20471;-58
2022/09/03 13:22:32;;;;;;;2.35;0.75;;;34.40;69.20;;;;;;5075418;28;20051;-58